sensor_id;sensor_type;location;lat;lon;timestamp;P1;durP1;ratioP1;P2;durP2;ratioP2
53881;SDS011;39794;55.782;37.452;2023-05-09T00:00:11;24.90;;;9.20;;
53881;SDS011;39794;55.782;37.452;2023-05-09T00:02:41;14.38;;;8.07;;
53881;SDS011;39794;55.782;37.452;2023-05-09T00:05:11;12.27;;;8.45;;
53881;SDS011;39794;55.782;37.452;2023-05-09T00:07:41;13.27;;;7.60;;
53881;SDS011;39794;55.782;37.452;2023-05-09T00:10:10;14.23;;;8.20;;
53881;SDS011;39794;55.782;37.452;2023-05-09T00:12:40;15.27;;;7.68;;
53881;SDS011;39794;55.782;37.452;2023-05-09T00:15:11;17.90;;;8.50;;
53881;SDS011;39794;55.782;37.452;2023-05-09T00:17:40;16.85;;;8.73;;
53881;SDS011;39794;55.782;37.452;2023-05-09T00:20:09;15.38;;;8.50;;
53881;SDS011;39794;55.782;37.452;2023-05-09T00:22:38;14.68;;;8.00;;
53881;SDS011;39794;55.782;37.452;2023-05-09T00:25:07;14.98;;;8.60;;
53881;SDS011;39794;55.782;37.452;2023-05-09T00:27:37;17.13;;;7.97;;
53881;SDS011;39794;55.782;37.452;2023-05-09T00:30:06;16.65;;;7.57;;
53881;SDS011;39794;55.782;37.452;2023-05-09T00:32:37;18.05;;;7.90;;
53881;SDS011;39794;55.782;37.452;2023-05-09T00:35:07;21.33;;;8.15;;
53881;SDS011;39794;55.782;37.452;2023-05-09T00:37:36;17.35;;;8.38;;
53881;SDS011;39794;55.782;37.452;2023-05-09T00:40:06;18.55;;;9.27;;
53881;SDS011;39794;55.782;37.452;2023-05-09T00:42:35;15.48;;;8.23;;
53881;SDS011;39794;55.782;37.452;2023-05-09T00:45:04;15.60;;;7.72;;
53881;SDS011;39794;55.782;37.452;2023-05-09T00:47:33;15.07;;;7.72;;
53881;SDS011;39794;55.782;37.452;2023-05-09T00:50:04;18.15;;;9.15;;
53881;SDS011;39794;55.782;37.452;2023-05-09T00:52:34;16.50;;;8.05;;
53881;SDS011;39794;55.782;37.452;2023-05-09T00:55:03;17.95;;;8.50;;
53881;SDS011;39794;55.782;37.452;2023-05-09T00:57:34;18.17;;;8.98;;
53881;SDS011;39794;55.782;37.452;2023-05-09T01:00:03;18.92;;;8.48;;
53881;SDS011;39794;55.782;37.452;2023-05-09T01:02:37;17.50;;;8.60;;
53881;SDS011;39794;55.782;37.452;2023-05-09T01:05:08;16.83;;;8.52;;
53881;SDS011;39794;55.782;37.452;2023-05-09T01:07:38;15.77;;;8.35;;
53881;SDS011;39794;55.782;37.452;2023-05-09T01:10:13;17.45;;;9.13;;
53881;SDS011;39794;55.782;37.452;2023-05-09T01:12:48;18.80;;;9.75;;
53881;SDS011;39794;55.782;37.452;2023-05-09T01:15:23;16.48;;;8.35;;
53881;SDS011;39794;55.782;37.452;2023-05-09T01:17:57;16.10;;;9.00;;
53881;SDS011;39794;55.782;37.452;2023-05-09T01:20:31;14.85;;;8.27;;
53881;SDS011;39794;55.782;37.452;2023-05-09T01:23:06;14.65;;;8.32;;
53881;SDS011;39794;55.782;37.452;2023-05-09T01:25:47;16.85;;;8.30;;
53881;SDS011;39794;55.782;37.452;2023-05-09T01:28:28;15.65;;;8.95;;
53881;SDS011;39794;55.782;37.452;2023-05-09T01:33:35;15.13;;;8.57;;
53881;SDS011;39794;55.782;37.452;2023-05-09T01:36:08;20.75;;;9.50;;
53881;SDS011;39794;55.782;37.452;2023-05-09T01:38:40;20.42;;;9.55;;
53881;SDS011;39794;55.782;37.452;2023-05-09T01:41:12;16.50;;;8.80;;
53881;SDS011;39794;55.782;37.452;2023-05-09T01:43:43;18.38;;;8.88;;
53881;SDS011;39794;55.782;37.452;2023-05-09T01:46:14;17.92;;;9.05;;
53881;SDS011;39794;55.782;37.452;2023-05-09T01:48:45;17.75;;;9.07;;
53881;SDS011;39794;55.782;37.452;2023-05-09T01:51:13;19.38;;;9.68;;
53881;SDS011;39794;55.782;37.452;2023-05-09T01:53:43;18.25;;;9.32;;
53881;SDS011;39794;55.782;37.452;2023-05-09T01:56:14;21.35;;;9.90;;
53881;SDS011;39794;55.782;37.452;2023-05-09T01:58:43;17.27;;;9.25;;
53881;SDS011;39794;55.782;37.452;2023-05-09T02:01:15;16.45;;;9.52;;
53881;SDS011;39794;55.782;37.452;2023-05-09T02:03:46;18.83;;;8.75;;
53881;SDS011;39794;55.782;37.452;2023-05-09T02:06:16;16.98;;;9.20;;
53881;SDS011;39794;55.782;37.452;2023-05-09T02:08:45;15.63;;;9.25;;
53881;SDS011;39794;55.782;37.452;2023-05-09T02:11:14;15.10;;;8.40;;
53881;SDS011;39794;55.782;37.452;2023-05-09T02:13:43;16.55;;;8.70;;
53881;SDS011;39794;55.782;37.452;2023-05-09T02:16:12;15.98;;;9.52;;
53881;SDS011;39794;55.782;37.452;2023-05-09T02:18:42;15.68;;;8.95;;
53881;SDS011;39794;55.782;37.452;2023-05-09T02:21:10;17.88;;;8.57;;
53881;SDS011;39794;55.782;37.452;2023-05-09T02:23:39;16.35;;;9.80;;
53881;SDS011;39794;55.782;37.452;2023-05-09T02:26:07;16.10;;;9.20;;
53881;SDS011;39794;55.782;37.452;2023-05-09T02:28:39;16.08;;;8.05;;
53881;SDS011;39794;55.782;37.452;2023-05-09T02:31:09;15.27;;;9.35;;
53881;SDS011;39794;55.782;37.452;2023-05-09T02:33:39;19.33;;;8.80;;
53881;SDS011;39794;55.782;37.452;2023-05-09T02:36:10;16.58;;;8.68;;
53881;SDS011;39794;55.782;37.452;2023-05-09T02:38:39;17.67;;;8.50;;
53881;SDS011;39794;55.782;37.452;2023-05-09T02:41:11;16.35;;;9.05;;
53881;SDS011;39794;55.782;37.452;2023-05-09T02:43:40;16.45;;;9.18;;
53881;SDS011;39794;55.782;37.452;2023-05-09T02:46:08;19.95;;;10.23;;
53881;SDS011;39794;55.782;37.452;2023-05-09T02:48:37;16.40;;;9.30;;
53881;SDS011;39794;55.782;37.452;2023-05-09T02:51:07;20.98;;;9.10;;
53881;SDS011;39794;55.782;37.452;2023-05-09T02:53:36;18.23;;;9.65;;
53881;SDS011;39794;55.782;37.452;2023-05-09T02:56:05;17.70;;;9.18;;
53881;SDS011;39794;55.782;37.452;2023-05-09T02:58:36;15.52;;;9.68;;
53881;SDS011;39794;55.782;37.452;2023-05-09T03:01:05;20.55;;;10.02;;
53881;SDS011;39794;55.782;37.452;2023-05-09T03:03:33;17.73;;;9.48;;
53881;SDS011;39794;55.782;37.452;2023-05-09T03:06:03;17.58;;;9.48;;
53881;SDS011;39794;55.782;37.452;2023-05-09T03:08:33;19.40;;;9.57;;
53881;SDS011;39794;55.782;37.452;2023-05-09T03:11:02;18.30;;;9.57;;
53881;SDS011;39794;55.782;37.452;2023-05-09T03:13:32;15.80;;;8.98;;
53881;SDS011;39794;55.782;37.452;2023-05-09T03:16:00;19.13;;;9.45;;
53881;SDS011;39794;55.782;37.452;2023-05-09T03:18:29;20.00;;;9.68;;
53881;SDS011;39794;55.782;37.452;2023-05-09T03:21:00;16.75;;;9.25;;
53881;SDS011;39794;55.782;37.452;2023-05-09T03:23:29;20.98;;;9.30;;
53881;SDS011;39794;55.782;37.452;2023-05-09T03:25:59;20.35;;;8.60;;
53881;SDS011;39794;55.782;37.452;2023-05-09T03:28:28;21.67;;;10.00;;
53881;SDS011;39794;55.782;37.452;2023-05-09T03:31:00;18.20;;;10.27;;
53881;SDS011;39794;55.782;37.452;2023-05-09T03:33:29;24.58;;;10.77;;
53881;SDS011;39794;55.782;37.452;2023-05-09T03:36:00;19.58;;;11.57;;
53881;SDS011;39794;55.782;37.452;2023-05-09T03:38:28;24.73;;;11.30;;
53881;SDS011;39794;55.782;37.452;2023-05-09T03:40:57;19.08;;;10.95;;
53881;SDS011;39794;55.782;37.452;2023-05-09T03:43:26;19.90;;;11.43;;
53881;SDS011;39794;55.782;37.452;2023-05-09T03:45:55;22.42;;;11.38;;
53881;SDS011;39794;55.782;37.452;2023-05-09T03:48:25;20.77;;;11.00;;
53881;SDS011;39794;55.782;37.452;2023-05-09T03:50:53;21.27;;;11.40;;
53881;SDS011;39794;55.782;37.452;2023-05-09T03:53:24;23.38;;;10.88;;
53881;SDS011;39794;55.782;37.452;2023-05-09T03:55:56;21.80;;;11.25;;
53881;SDS011;39794;55.782;37.452;2023-05-09T03:58:27;25.00;;;11.35;;
53881;SDS011;39794;55.782;37.452;2023-05-09T04:00:56;24.05;;;11.27;;
53881;SDS011;39794;55.782;37.452;2023-05-09T04:03:25;21.15;;;11.05;;
53881;SDS011;39794;55.782;37.452;2023-05-09T04:05:54;19.70;;;11.13;;
53881;SDS011;39794;55.782;37.452;2023-05-09T04:08:29;17.60;;;11.18;;
53881;SDS011;39794;55.782;37.452;2023-05-09T04:10:58;18.80;;;11.35;;
53881;SDS011;39794;55.782;37.452;2023-05-09T04:13:28;21.10;;;11.45;;
53881;SDS011;39794;55.782;37.452;2023-05-09T04:16:02;19.05;;;9.27;;
53881;SDS011;39794;55.782;37.452;2023-05-09T04:18:32;18.83;;;11.02;;
53881;SDS011;39794;55.782;37.452;2023-05-09T04:21:02;21.40;;;11.48;;
53881;SDS011;39794;55.782;37.452;2023-05-09T04:23:31;19.77;;;10.77;;
53881;SDS011;39794;55.782;37.452;2023-05-09T04:26:00;18.52;;;10.50;;
53881;SDS011;39794;55.782;37.452;2023-05-09T04:28:30;22.60;;;11.15;;
53881;SDS011;39794;55.782;37.452;2023-05-09T04:30:59;17.25;;;9.80;;
53881;SDS011;39794;55.782;37.452;2023-05-09T04:33:29;18.42;;;10.57;;
53881;SDS011;39794;55.782;37.452;2023-05-09T04:36:00;18.95;;;11.25;;
53881;SDS011;39794;55.782;37.452;2023-05-09T04:38:29;16.92;;;9.50;;
53881;SDS011;39794;55.782;37.452;2023-05-09T04:40:58;21.55;;;9.82;;
53881;SDS011;39794;55.782;37.452;2023-05-09T04:43:27;24.35;;;9.52;;
53881;SDS011;39794;55.782;37.452;2023-05-09T04:45:58;21.25;;;9.80;;
53881;SDS011;39794;55.782;37.452;2023-05-09T04:48:29;18.40;;;9.95;;
53881;SDS011;39794;55.782;37.452;2023-05-09T04:50:58;16.92;;;8.63;;
53881;SDS011;39794;55.782;37.452;2023-05-09T04:53:26;13.65;;;7.97;;
53881;SDS011;39794;55.782;37.452;2023-05-09T04:55:56;18.63;;;9.77;;
53881;SDS011;39794;55.782;37.452;2023-05-09T04:58:25;15.52;;;8.30;;
53881;SDS011;39794;55.782;37.452;2023-05-09T05:00:55;13.65;;;8.50;;
53881;SDS011;39794;55.782;37.452;2023-05-09T05:03:25;15.60;;;8.73;;
53881;SDS011;39794;55.782;37.452;2023-05-09T05:05:54;14.70;;;8.40;;
53881;SDS011;39794;55.782;37.452;2023-05-09T05:08:23;15.95;;;8.27;;
53881;SDS011;39794;55.782;37.452;2023-05-09T05:10:52;15.55;;;9.65;;
53881;SDS011;39794;55.782;37.452;2023-05-09T05:13:21;15.35;;;8.75;;
53881;SDS011;39794;55.782;37.452;2023-05-09T05:15:54;13.43;;;8.13;;
53881;SDS011;39794;55.782;37.452;2023-05-09T05:18:26;17.02;;;8.52;;
53881;SDS011;39794;55.782;37.452;2023-05-09T05:20:54;16.83;;;8.45;;
53881;SDS011;39794;55.782;37.452;2023-05-09T05:23:24;14.82;;;8.43;;
53881;SDS011;39794;55.782;37.452;2023-05-09T05:25:54;16.63;;;7.95;;
53881;SDS011;39794;55.782;37.452;2023-05-09T05:28:23;15.20;;;7.93;;
53881;SDS011;39794;55.782;37.452;2023-05-09T05:30:52;18.33;;;8.55;;
53881;SDS011;39794;55.782;37.452;2023-05-09T05:33:20;12.82;;;7.70;;
53881;SDS011;39794;55.782;37.452;2023-05-09T05:35:51;14.13;;;8.02;;
53881;SDS011;39794;55.782;37.452;2023-05-09T05:38:20;15.75;;;7.50;;
53881;SDS011;39794;55.782;37.452;2023-05-09T05:40:52;14.02;;;7.47;;
53881;SDS011;39794;55.782;37.452;2023-05-09T05:43:23;12.95;;;6.90;;
53881;SDS011;39794;55.782;37.452;2023-05-09T05:45:52;12.40;;;7.03;;
53881;SDS011;39794;55.782;37.452;2023-05-09T05:48:22;8.38;;;6.00;;
53881;SDS011;39794;55.782;37.452;2023-05-09T05:50:54;17.77;;;7.20;;
53881;SDS011;39794;55.782;37.452;2023-05-09T05:53:26;11.55;;;6.57;;
53881;SDS011;39794;55.782;37.452;2023-05-09T05:55:57;9.10;;;5.68;;
53881;SDS011;39794;55.782;37.452;2023-05-09T05:58:26;9.90;;;4.35;;
53881;SDS011;39794;55.782;37.452;2023-05-09T06:00:55;7.40;;;4.80;;
53881;SDS011;39794;55.782;37.452;2023-05-09T06:03:23;10.93;;;4.90;;
53881;SDS011;39794;55.782;37.452;2023-05-09T06:06:00;8.50;;;4.82;;
53881;SDS011;39794;55.782;37.452;2023-05-09T06:08:29;8.18;;;4.60;;
53881;SDS011;39794;55.782;37.452;2023-05-09T06:10:59;9.20;;;5.55;;
53881;SDS011;39794;55.782;37.452;2023-05-09T06:13:28;6.53;;;4.43;;
53881;SDS011;39794;55.782;37.452;2023-05-09T06:16:01;8.45;;;3.90;;
53881;SDS011;39794;55.782;37.452;2023-05-09T06:18:47;6.57;;;4.13;;
53881;SDS011;39794;55.782;37.452;2023-05-09T06:21:21;9.68;;;4.20;;
53881;SDS011;39794;55.782;37.452;2023-05-09T06:23:50;7.65;;;3.78;;
53881;SDS011;39794;55.782;37.452;2023-05-09T06:26:21;5.47;;;3.30;;
53881;SDS011;39794;55.782;37.452;2023-05-09T06:28:50;5.13;;;2.88;;
53881;SDS011;39794;55.782;37.452;2023-05-09T06:31:18;4.60;;;2.20;;
53881;SDS011;39794;55.782;37.452;2023-05-09T06:33:49;2.97;;;1.83;;
53881;SDS011;39794;55.782;37.452;2023-05-09T06:36:17;1.30;;;1.20;;
53881;SDS011;39794;55.782;37.452;2023-05-09T06:38:47;3.63;;;1.77;;
53881;SDS011;39794;55.782;37.452;2023-05-09T06:41:16;2.50;;;1.48;;
53881;SDS011;39794;55.782;37.452;2023-05-09T06:43:44;1.98;;;1.30;;
53881;SDS011;39794;55.782;37.452;2023-05-09T06:46:15;1.02;;;0.90;;
53881;SDS011;39794;55.782;37.452;2023-05-09T06:48:44;3.13;;;1.92;;
53881;SDS011;39794;55.782;37.452;2023-05-09T06:51:13;3.72;;;1.80;;
53881;SDS011;39794;55.782;37.452;2023-05-09T06:53:42;3.28;;;1.90;;
53881;SDS011;39794;55.782;37.452;2023-05-09T06:56:11;5.75;;;1.50;;
53881;SDS011;39794;55.782;37.452;2023-05-09T06:58:40;4.53;;;1.70;;
53881;SDS011;39794;55.782;37.452;2023-05-09T07:01:09;2.72;;;1.50;;
53881;SDS011;39794;55.782;37.452;2023-05-09T07:03:37;2.13;;;1.50;;
53881;SDS011;39794;55.782;37.452;2023-05-09T07:06:06;2.55;;;2.05;;
53881;SDS011;39794;55.782;37.452;2023-05-09T07:08:35;4.25;;;2.10;;
53881;SDS011;39794;55.782;37.452;2023-05-09T07:11:03;5.05;;;1.80;;
53881;SDS011;39794;55.782;37.452;2023-05-09T07:13:33;3.28;;;2.30;;
53881;SDS011;39794;55.782;37.452;2023-05-09T07:16:05;2.63;;;1.80;;
53881;SDS011;39794;55.782;37.452;2023-05-09T07:18:33;2.83;;;1.73;;
53881;SDS011;39794;55.782;37.452;2023-05-09T07:21:02;4.53;;;2.10;;
53881;SDS011;39794;55.782;37.452;2023-05-09T07:23:31;4.10;;;2.03;;
53881;SDS011;39794;55.782;37.452;2023-05-09T07:25:59;2.15;;;1.90;;
53881;SDS011;39794;55.782;37.452;2023-05-09T07:28:28;3.88;;;2.10;;
53881;SDS011;39794;55.782;37.452;2023-05-09T07:30:58;3.15;;;1.45;;
53881;SDS011;39794;55.782;37.452;2023-05-09T07:33:30;3.13;;;1.55;;
53881;SDS011;39794;55.782;37.452;2023-05-09T07:35:59;2.05;;;1.60;;
53881;SDS011;39794;55.782;37.452;2023-05-09T07:38:29;3.28;;;1.38;;
53881;SDS011;39794;55.782;37.452;2023-05-09T07:41:00;2.30;;;1.40;;
53881;SDS011;39794;55.782;37.452;2023-05-09T07:43:28;2.40;;;1.40;;
53881;SDS011;39794;55.782;37.452;2023-05-09T07:45:56;2.78;;;1.20;;
53881;SDS011;39794;55.782;37.452;2023-05-09T07:48:27;1.73;;;0.95;;
53881;SDS011;39794;55.782;37.452;2023-05-09T07:50:56;2.50;;;1.13;;
53881;SDS011;39794;55.782;37.452;2023-05-09T07:53:25;1.90;;;1.05;;
53881;SDS011;39794;55.782;37.452;2023-05-09T07:55:53;4.35;;;1.23;;
53881;SDS011;39794;55.782;37.452;2023-05-09T07:58:24;2.70;;;1.33;;
53881;SDS011;39794;55.782;37.452;2023-05-09T08:00:54;2.10;;;1.20;;
53881;SDS011;39794;55.782;37.452;2023-05-09T08:03:24;1.67;;;1.17;;
53881;SDS011;39794;55.782;37.452;2023-05-09T08:05:53;3.30;;;1.40;;
53881;SDS011;39794;55.782;37.452;2023-05-09T08:08:22;8.43;;;1.65;;
53881;SDS011;39794;55.782;37.452;2023-05-09T08:10:53;2.60;;;1.50;;
53881;SDS011;39794;55.782;37.452;2023-05-09T08:13:22;2.38;;;1.38;;
53881;SDS011;39794;55.782;37.452;2023-05-09T08:15:50;1.65;;;1.38;;
53881;SDS011;39794;55.782;37.452;2023-05-09T08:18:19;3.28;;;1.40;;
53881;SDS011;39794;55.782;37.452;2023-05-09T08:20:49;3.42;;;1.33;;
53881;SDS011;39794;55.782;37.452;2023-05-09T08:23:19;2.15;;;1.50;;
53881;SDS011;39794;55.782;37.452;2023-05-09T08:25:51;4.60;;;1.38;;
53881;SDS011;39794;55.782;37.452;2023-05-09T08:28:20;1.80;;;1.10;;
53881;SDS011;39794;55.782;37.452;2023-05-09T08:30:50;4.28;;;1.30;;
53881;SDS011;39794;55.782;37.452;2023-05-09T08:33:18;2.85;;;1.00;;
53881;SDS011;39794;55.782;37.452;2023-05-09T08:35:51;2.90;;;1.20;;
53881;SDS011;39794;55.782;37.452;2023-05-09T08:38:21;1.83;;;1.00;;
53881;SDS011;39794;55.782;37.452;2023-05-09T08:40:50;1.48;;;1.27;;
53881;SDS011;39794;55.782;37.452;2023-05-09T08:43:18;2.33;;;1.23;;
53881;SDS011;39794;55.782;37.452;2023-05-09T08:45:50;3.95;;;2.40;;
53881;SDS011;39794;55.782;37.452;2023-05-09T08:48:19;1.95;;;1.30;;
53881;SDS011;39794;55.782;37.452;2023-05-09T08:50:50;3.47;;;1.58;;
53881;SDS011;39794;55.782;37.452;2023-05-09T08:53:21;4.85;;;1.98;;
53881;SDS011;39794;55.782;37.452;2023-05-09T08:55:49;2.05;;;1.45;;
53881;SDS011;39794;55.782;37.452;2023-05-09T08:58:18;5.07;;;1.35;;
53881;SDS011;39794;55.782;37.452;2023-05-09T09:00:48;2.38;;;1.20;;
53881;SDS011;39794;55.782;37.452;2023-05-09T09:03:17;2.63;;;1.20;;
53881;SDS011;39794;55.782;37.452;2023-05-09T09:05:46;1.58;;;1.27;;
53881;SDS011;39794;55.782;37.452;2023-05-09T09:08:16;2.40;;;1.13;;
53881;SDS011;39794;55.782;37.452;2023-05-09T09:10:45;5.40;;;1.42;;
53881;SDS011;39794;55.782;37.452;2023-05-09T09:13:14;2.38;;;1.20;;
53881;SDS011;39794;55.782;37.452;2023-05-09T09:15:44;2.10;;;1.20;;
53881;SDS011;39794;55.782;37.452;2023-05-09T09:18:15;6.13;;;1.33;;
53881;SDS011;39794;55.782;37.452;2023-05-09T09:20:49;3.47;;;1.42;;
53881;SDS011;39794;55.782;37.452;2023-05-09T09:23:20;2.13;;;1.50;;
53881;SDS011;39794;55.782;37.452;2023-05-09T09:28:25;2.20;;;1.27;;
53881;SDS011;39794;55.782;37.452;2023-05-09T09:30:54;3.85;;;2.00;;
53881;SDS011;39794;55.782;37.452;2023-05-09T09:33:25;3.05;;;1.60;;
53881;SDS011;39794;55.782;37.452;2023-05-09T09:35:55;2.60;;;1.50;;
53881;SDS011;39794;55.782;37.452;2023-05-09T09:38:26;2.22;;;1.30;;
53881;SDS011;39794;55.782;37.452;2023-05-09T09:40:57;1.63;;;1.05;;
53881;SDS011;39794;55.782;37.452;2023-05-09T09:43:26;1.73;;;1.08;;
53881;SDS011;39794;55.782;37.452;2023-05-09T09:45:55;3.30;;;1.10;;
53881;SDS011;39794;55.782;37.452;2023-05-09T09:48:26;4.57;;;1.30;;
53881;SDS011;39794;55.782;37.452;2023-05-09T09:51:02;1.60;;;1.30;;
53881;SDS011;39794;55.782;37.452;2023-05-09T09:53:38;3.38;;;1.40;;
53881;SDS011;39794;55.782;37.452;2023-05-09T09:56:07;1.92;;;1.30;;
53881;SDS011;39794;55.782;37.452;2023-05-09T09:58:36;3.70;;;1.58;;
53881;SDS011;39794;55.782;37.452;2023-05-09T10:01:05;1.58;;;1.45;;
53881;SDS011;39794;55.782;37.452;2023-05-09T10:03:35;2.70;;;1.42;;
53881;SDS011;39794;55.782;37.452;2023-05-09T10:06:08;1.60;;;1.02;;
53881;SDS011;39794;55.782;37.452;2023-05-09T10:08:40;1.48;;;1.20;;
53881;SDS011;39794;55.782;37.452;2023-05-09T10:11:10;2.05;;;1.02;;
53881;SDS011;39794;55.782;37.452;2023-05-09T10:13:41;1.45;;;1.20;;
53881;SDS011;39794;55.782;37.452;2023-05-09T10:16:10;2.78;;;1.10;;
53881;SDS011;39794;55.782;37.452;2023-05-09T10:18:40;1.67;;;1.40;;
53881;SDS011;39794;55.782;37.452;2023-05-09T10:21:10;1.48;;;1.10;;
53881;SDS011;39794;55.782;37.452;2023-05-09T10:23:44;2.38;;;1.40;;
53881;SDS011;39794;55.782;37.452;2023-05-09T10:26:15;2.85;;;1.73;;
53881;SDS011;39794;55.782;37.452;2023-05-09T10:28:45;4.32;;;1.55;;
53881;SDS011;39794;55.782;37.452;2023-05-09T10:31:17;4.35;;;1.60;;
53881;SDS011;39794;55.782;37.452;2023-05-09T10:33:50;2.83;;;1.52;;
53881;SDS011;39794;55.782;37.452;2023-05-09T10:36:19;2.65;;;1.95;;
53881;SDS011;39794;55.782;37.452;2023-05-09T10:38:52;2.15;;;1.70;;
53881;SDS011;39794;55.782;37.452;2023-05-09T10:41:22;3.20;;;1.77;;
53881;SDS011;39794;55.782;37.452;2023-05-09T10:43:51;2.30;;;1.20;;
53881;SDS011;39794;55.782;37.452;2023-05-09T10:46:22;2.63;;;1.55;;
53881;SDS011;39794;55.782;37.452;2023-05-09T10:48:55;1.70;;;1.25;;
53881;SDS011;39794;55.782;37.452;2023-05-09T10:51:23;3.17;;;1.42;;
53881;SDS011;39794;55.782;37.452;2023-05-09T10:53:55;1.88;;;1.25;;
53881;SDS011;39794;55.782;37.452;2023-05-09T10:56:24;4.05;;;1.30;;
53881;SDS011;39794;55.782;37.452;2023-05-09T10:58:53;5.18;;;1.13;;
53881;SDS011;39794;55.782;37.452;2023-05-09T11:01:29;1.42;;;1.00;;
53881;SDS011;39794;55.782;37.452;2023-05-09T11:04:07;2.97;;;1.70;;
53881;SDS011;39794;55.782;37.452;2023-05-09T11:06:42;3.10;;;1.30;;
53881;SDS011;39794;55.782;37.452;2023-05-09T11:09:24;1.75;;;1.08;;
53881;SDS011;39794;55.782;37.452;2023-05-09T11:12:00;3.00;;;1.88;;
53881;SDS011;39794;55.782;37.452;2023-05-09T11:14:41;5.40;;;1.20;;
53881;SDS011;39794;55.782;37.452;2023-05-09T11:17:12;2.55;;;1.08;;
53881;SDS011;39794;55.782;37.452;2023-05-09T11:19:58;3.78;;;1.80;;
53881;SDS011;39794;55.782;37.452;2023-05-09T11:22:39;3.28;;;1.40;;
53881;SDS011;39794;55.782;37.452;2023-05-09T11:25:10;2.17;;;1.60;;
53881;SDS011;39794;55.782;37.452;2023-05-09T11:27:41;1.92;;;1.35;;
53881;SDS011;39794;55.782;37.452;2023-05-09T11:30:11;1.90;;;1.40;;
53881;SDS011;39794;55.782;37.452;2023-05-09T11:32:44;2.95;;;1.42;;
53881;SDS011;39794;55.782;37.452;2023-05-09T11:35:15;1.83;;;1.10;;
53881;SDS011;39794;55.782;37.452;2023-05-09T11:37:47;4.03;;;1.52;;
53881;SDS011;39794;55.782;37.452;2023-05-09T11:40:18;2.72;;;1.40;;
53881;SDS011;39794;55.782;37.452;2023-05-09T11:42:48;5.72;;;1.52;;
53881;SDS011;39794;55.782;37.452;2023-05-09T11:45:23;3.05;;;1.40;;
53881;SDS011;39794;55.782;37.452;2023-05-09T11:47:53;2.15;;;1.52;;
53881;SDS011;39794;55.782;37.452;2023-05-09T11:50:23;4.55;;;1.40;;
53881;SDS011;39794;55.782;37.452;2023-05-09T11:52:52;1.85;;;1.30;;
53881;SDS011;39794;55.782;37.452;2023-05-09T11:55:22;3.97;;;1.88;;
53881;SDS011;39794;55.782;37.452;2023-05-09T11:57:52;3.05;;;1.15;;
53881;SDS011;39794;55.782;37.452;2023-05-09T12:00:21;3.88;;;1.60;;
53881;SDS011;39794;55.782;37.452;2023-05-09T12:02:51;2.58;;;1.25;;
53881;SDS011;39794;55.782;37.452;2023-05-09T12:05:21;4.63;;;1.60;;
53881;SDS011;39794;55.782;37.452;2023-05-09T12:07:51;3.70;;;1.70;;
53881;SDS011;39794;55.782;37.452;2023-05-09T12:10:22;2.15;;;1.55;;
53881;SDS011;39794;55.782;37.452;2023-05-09T12:12:51;2.65;;;1.30;;
53881;SDS011;39794;55.782;37.452;2023-05-09T12:15:23;2.75;;;1.45;;
53881;SDS011;39794;55.782;37.452;2023-05-09T12:18:01;3.63;;;1.40;;
53881;SDS011;39794;55.782;37.452;2023-05-09T12:20:44;1.60;;;1.30;;
53881;SDS011;39794;55.782;37.452;2023-05-09T12:23:14;3.17;;;1.83;;
53881;SDS011;39794;55.782;37.452;2023-05-09T12:25:53;2.53;;;1.75;;
53881;SDS011;39794;55.782;37.452;2023-05-09T12:28:22;3.70;;;2.03;;
53881;SDS011;39794;55.782;37.452;2023-05-09T12:30:52;2.15;;;1.30;;
53881;SDS011;39794;55.782;37.452;2023-05-09T12:33:22;4.30;;;1.70;;
53881;SDS011;39794;55.782;37.452;2023-05-09T12:36:00;2.75;;;1.45;;
53881;SDS011;39794;55.782;37.452;2023-05-09T12:38:29;3.47;;;1.80;;
53881;SDS011;39794;55.782;37.452;2023-05-09T12:41:00;2.83;;;1.90;;
53881;SDS011;39794;55.782;37.452;2023-05-09T12:43:30;2.97;;;1.60;;
53881;SDS011;39794;55.782;37.452;2023-05-09T12:45:59;3.88;;;1.83;;
53881;SDS011;39794;55.782;37.452;2023-05-09T12:48:29;5.65;;;2.00;;
53881;SDS011;39794;55.782;37.452;2023-05-09T12:51:04;3.13;;;1.80;;
53881;SDS011;39794;55.782;37.452;2023-05-09T12:53:35;2.67;;;1.73;;
53881;SDS011;39794;55.782;37.452;2023-05-09T12:56:12;4.75;;;1.77;;
53881;SDS011;39794;55.782;37.452;2023-05-09T12:58:46;2.53;;;1.40;;
53881;SDS011;39794;55.782;37.452;2023-05-09T13:01:16;2.78;;;1.70;;
53881;SDS011;39794;55.782;37.452;2023-05-09T13:03:49;4.22;;;1.85;;
53881;SDS011;39794;55.782;37.452;2023-05-09T13:06:18;2.17;;;1.60;;
53881;SDS011;39794;55.782;37.452;2023-05-09T13:08:55;13.93;;;2.00;;
53881;SDS011;39794;55.782;37.452;2023-05-09T13:11:27;3.15;;;1.80;;
53881;SDS011;39794;55.782;37.452;2023-05-09T13:13:56;5.00;;;1.98;;
53881;SDS011;39794;55.782;37.452;2023-05-09T13:16:24;4.82;;;1.50;;
53881;SDS011;39794;55.782;37.452;2023-05-09T13:18:53;4.68;;;1.75;;
53881;SDS011;39794;55.782;37.452;2023-05-09T13:21:22;4.50;;;2.20;;
53881;SDS011;39794;55.782;37.452;2023-05-09T13:23:50;3.03;;;2.00;;
53881;SDS011;39794;55.782;37.452;2023-05-09T13:26:19;1.85;;;1.60;;
53881;SDS011;39794;55.782;37.452;2023-05-09T13:28:49;2.83;;;1.58;;
53881;SDS011;39794;55.782;37.452;2023-05-09T13:31:18;3.22;;;1.80;;
53881;SDS011;39794;55.782;37.452;2023-05-09T13:33:49;3.05;;;1.73;;
53881;SDS011;39794;55.782;37.452;2023-05-09T13:36:18;5.13;;;2.35;;
53881;SDS011;39794;55.782;37.452;2023-05-09T13:38:47;3.63;;;2.13;;
53881;SDS011;39794;55.782;37.452;2023-05-09T13:41:15;4.13;;;1.80;;
53881;SDS011;39794;55.782;37.452;2023-05-09T13:43:49;2.72;;;1.80;;
53881;SDS011;39794;55.782;37.452;2023-05-09T13:46:18;2.15;;;1.55;;
53881;SDS011;39794;55.782;37.452;2023-05-09T13:48:47;4.75;;;1.60;;
53881;SDS011;39794;55.782;37.452;2023-05-09T13:51:15;2.22;;;1.63;;
53881;SDS011;39794;55.782;37.452;2023-05-09T13:53:43;3.22;;;1.75;;
53881;SDS011;39794;55.782;37.452;2023-05-09T13:56:12;2.83;;;1.60;;
53881;SDS011;39794;55.782;37.452;2023-05-09T13:58:41;2.67;;;1.85;;
53881;SDS011;39794;55.782;37.452;2023-05-09T14:01:13;2.72;;;1.80;;
53881;SDS011;39794;55.782;37.452;2023-05-09T14:03:41;4.18;;;1.67;;
53881;SDS011;39794;55.782;37.452;2023-05-09T14:06:13;3.05;;;1.40;;
53881;SDS011;39794;55.782;37.452;2023-05-09T14:08:41;3.42;;;1.90;;
53881;SDS011;39794;55.782;37.452;2023-05-09T14:11:10;2.85;;;1.80;;
53881;SDS011;39794;55.782;37.452;2023-05-09T14:13:39;5.45;;;2.10;;
53881;SDS011;39794;55.782;37.452;2023-05-09T14:16:10;3.63;;;2.20;;
53881;SDS011;39794;55.782;37.452;2023-05-09T14:18:40;2.47;;;1.65;;
53881;SDS011;39794;55.782;37.452;2023-05-09T14:21:09;3.00;;;2.00;;
53881;SDS011;39794;55.782;37.452;2023-05-09T14:23:37;5.22;;;1.80;;
53881;SDS011;39794;55.782;37.452;2023-05-09T14:26:06;2.70;;;1.80;;
53881;SDS011;39794;55.782;37.452;2023-05-09T14:28:35;4.22;;;1.60;;
53881;SDS011;39794;55.782;37.452;2023-05-09T14:31:04;3.65;;;1.50;;
53881;SDS011;39794;55.782;37.452;2023-05-09T14:33:32;3.08;;;1.65;;
53881;SDS011;39794;55.782;37.452;2023-05-09T14:36:04;3.25;;;1.67;;
53881;SDS011;39794;55.782;37.452;2023-05-09T14:38:33;2.80;;;1.55;;
53881;SDS011;39794;55.782;37.452;2023-05-09T14:41:02;4.10;;;1.50;;
53881;SDS011;39794;55.782;37.452;2023-05-09T14:43:32;1.60;;;1.40;;
53881;SDS011;39794;55.782;37.452;2023-05-09T14:46:01;4.07;;;1.58;;
53881;SDS011;39794;55.782;37.452;2023-05-09T14:48:29;1.50;;;1.40;;
53881;SDS011;39794;55.782;37.452;2023-05-09T14:50:59;3.65;;;1.80;;